Time;durP1;ratioP1;P1;durP2;ratioP2;P2;SDS_P1;SDS_P2;PMS_P1;PMS_P2;Temp;Humidity;BMP_temperature;BMP_pressure;BME280_temperature;BME280_humidity;BME280_pressure;Samples;Min_cycle;Max_cycle;Signal;HPM_P1;HPM_P2
2021/08/17 00:01:37;;;;;;;4.85;3.72;;;;;;;;;;10322599;28;20106;-60
2021/08/17 00:06:36;;;;;;;4.53;3.38;;;;;;;;;;10322799;28;20052;-60
2021/08/17 00:11:34;;;;;;;5.30;3.50;;;;;;;;;;10322365;28;20048;-62
2021/08/17 00:16:32;;;;;;;4.05;3.63;;;;;;;;;;10322102;28;20037;-61
2021/08/17 00:21:32;;;;;;;3.97;3.33;;;;;;;;;;10321593;28;20072;-61
2021/08/17 00:26:30;;;;;;;7.90;4.00;;;;;;;;;;10321756;28;20044;-61
2021/08/17 00:31:29;;;;;;;4.55;3.35;;;;;;;;;;10321740;28;20071;-61
2021/08/17 00:36:28;;;;;;;4.88;3.63;;;;;;;;;;10321754;28;20044;-61
2021/08/17 00:41:28;;;;;;;4.68;3.33;;;;;;;;;;10321019;28;20445;-61
2021/08/17 00:46:26;;;;;;;6.78;3.47;;;;;;;;;;10320555;28;20079;-61
2021/08/17 00:51:25;;;;;;;5.30;4.18;;;;;;;;;;10321022;28;20056;-61
2021/08/17 00:56:23;;;;;;;7.25;3.55;;;;;;;;;;10320563;28;20056;-61
2021/08/17 01:01:23;;;;;;;7.05;3.47;;;;;;;;;;10320340;28;20110;-61
2021/08/17 01:06:22;;;;;;;7.65;3.40;;;;;;;;;;10320007;28;20060;-61
2021/08/17 01:11:20;;;;;;;4.68;3.90;;;;;;;;;;10320406;28;20045;-61
2021/08/17 01:16:19;;;;;;;7.05;3.58;;;;;;;;;;10320005;28;20040;-61
2021/08/17 01:21:19;;;;;;;4.53;3.20;;;;;;;;;;10319733;28;20080;-61
2021/08/17 01:26:18;;;;;;;4.35;3.38;;;;;;;;;;10319411;28;20080;-61
2021/08/17 01:31:17;;;;;;;4.35;3.40;;;;;;;;;;10319148;28;20071;-61
2021/08/17 01:36:15;;;;;;;4.97;3.50;;;;;;;;;;10318892;28;20051;-61
2021/08/17 01:41:13;;;;;;;4.63;3.13;;;;;;;;;;10318546;28;20502;-61
2021/08/17 01:46:13;;;;;;;3.20;2.90;;;;;;;;;;10318475;28;20085;-61
2021/08/17 01:51:12;;;;;;;7.20;3.42;;;;;;;;;;10318621;28;20076;-61
2021/08/17 01:56:11;;;;;;;5.60;3.80;;;;;;;;;;10318157;28;20080;-61
2021/08/17 02:01:10;;;;;;;5.32;3.08;;;;;;;;;;10317776;28;20076;-62
2021/08/17 02:06:10;;;;;;;5.05;3.63;;;;;;;;;;10317775;28;20056;-61
2021/08/17 02:11:08;;;;;;;4.90;3.50;;;;;;;;;;10316548;28;20083;-61
2021/08/17 02:16:07;;;;;;;4.05;3.40;;;;;;;;;;10317271;28;20435;-61
2021/08/17 02:21:05;;;;;;;5.53;3.67;;;;;;;;;;10317156;28;20084;-61
2021/08/17 02:26:05;;;;;;;7.70;3.58;;;;;;;;;;10317446;28;20406;-60
2021/08/17 02:31:03;;;;;;;5.45;3.08;;;;;;;;;;10317405;28;20040;-64
2021/08/17 02:36:01;;;;;;;5.47;3.60;;;;;;;;;;10316896;28;20048;-61
2021/08/17 02:41:00;;;;;;;6.13;2.78;;;;;;;;;;10316542;28;20469;-61
2021/08/17 02:45:59;;;;;;;4.18;3.33;;;;;;;;;;10316887;28;20498;-61
2021/08/17 02:50:58;;;;;;;3.33;3.03;;;;;;;;;;10316342;28;20079;-61
2021/08/17 02:55:56;;;;;;;3.50;3.10;;;;;;;;;;10316287;28;20047;-61
2021/08/17 03:00:54;;;;;;;4.75;2.75;;;;;;;;;;10316855;28;20075;-60
2021/08/17 03:05:54;;;;;;;3.45;3.08;;;;;;;;;;10315893;28;20095;-60
2021/08/17 03:10:53;;;;;;;4.50;3.30;;;;;;;;;;10316544;28;20051;-60
2021/08/17 03:15:51;;;;;;;4.15;3.08;;;;;;;;;;10316163;28;20049;-61
2021/08/17 03:20:50;;;;;;;7.00;3.30;;;;;;;;;;10318617;28;20091;-61
2021/08/17 03:25:49;;;;;;;7.90;3.20;;;;;;;;;;10323908;28;20045;-61
2021/08/17 03:30:48;;;;;;;3.97;3.08;;;;;;;;;;10324062;28;20052;-61
2021/08/17 03:35:47;;;;;;;6.13;3.45;;;;;;;;;;10324151;28;20076;-61
2021/08/17 03:40:45;;;;;;;6.22;3.15;;;;;;;;;;10323256;28;20075;-61
2021/08/17 03:45:45;;;;;;;5.40;3.78;;;;;;;;;;10323026;28;20094;-61
2021/08/17 03:50:43;;;;;;;3.83;3.10;;;;;;;;;;10322948;28;20071;-61
2021/08/17 03:55:42;;;;;;;4.38;3.13;;;;;;;;;;10322761;28;20504;-60
2021/08/17 04:00:40;;;;;;;4.32;3.40;;;;;;;;;;10322379;28;20051;-61
2021/08/17 04:05:40;;;;;;;5.05;3.80;;;;;;;;;;10322153;28;20118;-61
2021/08/17 04:10:39;;;;;;;8.40;4.43;;;;;;;;;;10322623;28;20083;-61
2021/08/17 04:15:37;;;;;;;6.35;5.75;;;;;;;;;;10322032;28;20413;-60
2021/08/17 04:20:36;;;;;;;14.98;13.40;;;;;;;;;;10321667;28;20055;-62
2021/08/17 04:25:35;;;;;;;10.88;8.57;;;;;;;;;;10321543;28;20552;-61
2021/08/17 04:30:34;;;;;;;10.40;6.03;;;;;;;;;;10321393;28;20045;-61
2021/08/17 04:35:33;;;;;;;11.02;9.48;;;;;;;;;;10320318;28;20527;-61
2021/08/17 04:40:31;;;;;;;17.20;9.32;;;;;;;;;;10320972;28;20052;-61
2021/08/17 04:45:31;;;;;;;7.30;4.63;;;;;;;;;;10320971;28;20076;-61
2021/08/17 04:50:29;;;;;;;6.70;4.78;;;;;;;;;;10320481;28;20063;-61
2021/08/17 04:55:28;;;;;;;10.63;5.18;;;;;;;;;;10320382;28;20092;-61
2021/08/17 05:00:26;;;;;;;5.72;4.63;;;;;;;;;;10320402;28;20580;-61
2021/08/17 05:05:26;;;;;;;5.85;4.20;;;;;;;;;;10320593;28;20075;-61
2021/08/17 05:10:25;;;;;;;3.95;3.30;;;;;;;;;;10319973;28;20071;-61
2021/08/17 05:15:23;;;;;;;10.10;3.75;;;;;;;;;;10319288;28;20076;-61
2021/08/17 05:20:21;;;;;;;4.78;3.63;;;;;;;;;;10319679;28;20052;-61
2021/08/17 05:25:21;;;;;;;8.40;3.88;;;;;;;;;;10319133;28;20068;-61
2021/08/17 05:30:19;;;;;;;8.68;3.90;;;;;;;;;;10319065;28;20059;-61
2021/08/17 05:35:18;;;;;;;7.28;3.70;;;;;;;;;;10318630;28;20489;-61
2021/08/17 05:40:17;;;;;;;6.88;3.55;;;;;;;;;;10318627;28;20444;-61
2021/08/17 05:45:16;;;;;;;8.40;3.95;;;;;;;;;;10318672;28;20075;-60
2021/08/17 05:50:15;;;;;;;9.23;3.65;;;;;;;;;;10318092;28;20051;-60
2021/08/17 05:55:14;;;;;;;8.68;4.20;;;;;;;;;;10318044;28;20044;-61
2021/08/17 06:00:13;;;;;;;6.35;3.97;;;;;;;;;;10317908;28;20076;-60
2021/08/17 06:05:13;;;;;;;9.82;3.85;;;;;;;;;;10318037;28;20107;-60
2021/08/17 06:10:11;;;;;;;9.23;4.18;;;;;;;;;;10317451;28;20040;-60
2021/08/17 06:15:10;;;;;;;3.95;3.15;;;;;;;;;;10317061;28;20051;-61
2021/08/17 06:20:09;;;;;;;6.22;3.17;;;;;;;;;;10317754;28;20048;-61
2021/08/17 06:25:10;;;;;;;5.53;3.22;;;;;;;;;;10316926;28;20083;-60
2021/08/17 06:30:08;;;;;;;4.82;3.17;;;;;;;;;;10316834;28;20048;-60
2021/08/17 06:35:23;;;;;;;7.75;3.47;;;;;;;;;;10316790;28;20044;-60
2021/08/17 06:40:22;;;;;;;4.50;2.90;;;;;;;;;;10316465;28;20076;-59
2021/08/17 06:45:21;;;;;;;3.22;2.85;;;;;;;;;;10316533;28;20072;-60
2021/08/17 06:50:20;;;;;;;6.43;3.00;;;;;;;;;;10316832;28;20518;-59
2021/08/17 06:55:19;;;;;;;4.47;2.72;;;;;;;;;;10315789;28;20048;-59
2021/08/17 07:00:19;;;;;;;9.05;3.35;;;;;;;;;;10316125;28;20071;-60
2021/08/17 07:05:17;;;;;;;6.55;3.70;;;;;;;;;;10315776;28;20072;-60
2021/08/17 07:10:16;;;;;;;3.97;3.08;;;;;;;;;;10316452;28;20501;-61
2021/08/17 07:15:14;;;;;;;7.25;2.95;;;;;;;;;;10315811;28;20048;-61
2021/08/17 07:20:14;;;;;;;4.28;3.25;;;;;;;;;;10315537;28;20048;-61
2021/08/17 07:25:13;;;;;;;9.27;4.03;;;;;;;;;;10315590;28;20083;-59
2021/08/17 07:30:12;;;;;;;7.47;4.00;;;;;;;;;;10315448;28;20041;-61
2021/08/17 07:35:11;;;;;;;12.73;4.20;;;;;;;;;;10315691;28;20053;-61
2021/08/17 07:40:12;;;;;;;14.77;3.38;;;;;;;;;;10315267;28;20049;-61
2021/08/17 07:45:11;;;;;;;4.85;3.38;;;;;;;;;;10315105;28;20079;-61
2021/08/17 07:50:10;;;;;;;6.28;3.72;;;;;;;;;;10315707;28;20084;-61
2021/08/17 07:55:10;;;;;;;12.52;3.13;;;;;;;;;;10314974;28;20394;-61
2021/08/17 08:00:11;;;;;;;10.60;3.85;;;;;;;;;;10314971;28;20075;-60
2021/08/17 08:05:10;;;;;;;5.75;3.20;;;;;;;;;;10314533;28;20083;-61
2021/08/17 08:10:09;;;;;;;6.95;3.42;;;;;;;;;;10321775;28;20048;-60
2021/08/17 08:15:07;;;;;;;6.43;2.92;;;;;;;;;;10322037;28;20051;-60
2021/08/17 08:20:08;;;;;;;6.43;2.85;;;;;;;;;;10322206;28;20059;-60
2021/08/17 08:25:07;;;;;;;6.18;3.10;;;;;;;;;;10321909;28;20513;-60
2021/08/17 08:30:06;;;;;;;4.50;3.03;;;;;;;;;;10322453;28;20083;-61
2021/08/17 08:35:05;;;;;;;4.78;3.28;;;;;;;;;;10321206;28;20080;-61
2021/08/17 08:40:05;;;;;;;4.05;2.50;;;;;;;;;;10321516;28;20052;-60
2021/08/17 08:45:05;;;;;;;7.35;5.45;;;;;;;;;;10321948;28;20080;-60
2021/08/17 08:50:03;;;;;;;3.80;3.40;;;;;;;;;;10321246;28;20084;-61
2021/08/17 08:55:02;;;;;;;9.45;3.75;;;;;;;;;;10320468;28;20072;-61
2021/08/17 09:00:02;;;;;;;7.80;3.30;;;;;;;;;;10321230;28;20056;-61
2021/08/17 09:05:01;;;;;;;6.43;3.20;;;;;;;;;;10321121;28;20083;-60
2021/08/17 09:10:00;;;;;;;10.57;4.32;;;;;;;;;;10320006;28;20041;-60
2021/08/17 09:15:07;;;;;;;4.88;3.67;;;;;;;;;;10320959;28;20040;-61
2021/08/17 09:20:06;;;;;;;6.05;3.60;;;;;;;;;;10319365;28;20063;-61
2021/08/17 09:25:05;;;;;;;6.65;3.30;;;;;;;;;;10319332;28;20064;-61
2021/08/17 09:30:07;;;;;;;7.28;4.70;;;;;;;;;;10319245;28;20048;-61
2021/08/17 09:35:05;;;;;;;6.93;5.07;;;;;;;;;;10318894;28;20170;-60
2021/08/17 09:40:04;;;;;;;8.88;3.50;;;;;;;;;;10319041;28;20063;-61
2021/08/17 09:45:07;;;;;;;6.63;3.67;;;;;;;;;;10318944;28;20114;-60
2021/08/17 09:50:20;;;;;;;6.50;3.58;;;;;;;;;;10318839;28;20079;-60
2021/08/17 09:55:19;;;;;;;4.85;3.22;;;;;;;;;;10318677;28;20052;-60
2021/08/17 10:00:19;;;;;;;7.20;3.40;;;;;;;;;;10317807;28;20036;-60
2021/08/17 10:05:17;;;;;;;4.05;2.55;;;;;;;;;;10317581;28;20076;-60
2021/08/17 10:10:15;;;;;;;6.85;3.50;;;;;;;;;;10317987;28;20395;-61
2021/08/17 10:15:15;;;;;;;14.00;3.22;;;;;;;;;;10317798;28;20044;-61
2021/08/17 10:20:16;;;;;;;9.02;2.92;;;;;;;;;;10317145;28;20037;-61
2021/08/17 10:25:17;;;;;;;3.33;2.60;;;;;;;;;;10316983;28;20079;-60
2021/08/17 10:30:17;;;;;;;10.10;3.50;;;;;;;;;;10317002;28;20345;-60
2021/08/17 10:35:36;;;;;;;3.28;2.63;;;;;;;;;;10316715;28;20048;-61
2021/08/17 10:40:49;;;;;;;5.43;3.17;;;;;;;;;;10316515;28;20036;-61
2021/08/17 10:45:51;;;;;;;4.25;2.85;;;;;;;;;;10315927;28;20489;-61
2021/08/17 10:50:49;;;;;;;3.73;3.00;;;;;;;;;;10316509;28;20052;-61
2021/08/17 10:55:50;;;;;;;3.10;2.80;;;;;;;;;;10316305;28;20052;-61
2021/08/17 11:00:53;;;;;;;4.28;2.85;;;;;;;;;;10315817;28;20485;-60
2021/08/17 11:05:53;;;;;;;2.75;2.55;;;;;;;;;;10316456;28;20044;-60
2021/08/17 11:10:51;;;;;;;5.50;2.47;;;;;;;;;;10316829;28;20048;-60
2021/08/17 11:16:04;;;;;;;7.30;2.40;;;;;;;;;;10315653;28;20060;-60
2021/08/17 11:21:04;;;;;;;5.40;2.90;;;;;;;;;;10316366;28;20171;-60
2021/08/17 11:26:08;;;;;;;5.47;2.88;;;;;;;;;;10315770;28;20072;-61
2021/08/17 11:31:06;;;;;;;9.90;2.90;;;;;;;;;;10315578;28;20576;-61
2021/08/17 11:36:19;;;;;;;2.67;2.30;;;;;;;;;;10315643;28;20072;-61
2021/08/17 11:41:31;;;;;;;3.17;2.53;;;;;;;;;;10317378;28;20071;-62
2021/08/17 11:46:30;;;;;;;3.20;2.70;;;;;;;;;;10322920;28;20088;-62
2021/08/17 11:51:28;;;;;;;4.20;2.80;;;;;;;;;;10323605;28;20080;-61
2021/08/17 11:56:26;;;;;;;4.72;2.53;;;;;;;;;;10324034;28;20056;-62
2021/08/17 12:01:26;;;;;;;2.13;1.92;;;;;;;;;;10322705;28;20405;-60
2021/08/17 12:06:25;;;;;;;2.60;2.38;;;;;;;;;;10323022;28;20079;-61
2021/08/17 12:11:23;;;;;;;4.60;2.55;;;;;;;;;;10322333;28;20041;-61
2021/08/17 12:16:21;;;;;;;6.00;2.03;;;;;;;;;;10322020;28;20040;-60
2021/08/17 12:21:23;;;;;;;1.73;1.63;;;;;;;;;;10322110;28;20048;-60
2021/08/17 12:26:30;;;;;;;3.43;2.47;;;;;;;;;;10322097;28;20471;-61
2021/08/17 12:31:29;;;;;;;2.88;1.75;;;;;;;;;;10322322;28;20099;-61
2021/08/17 12:36:45;;;;;;;2.70;2.15;;;;;;;;;;10321978;28;20052;-61
2021/08/17 12:41:47;;;;;;;2.90;2.20;;;;;;;;;;10321740;28;20110;-60
2021/08/17 12:47:03;;;;;;;2.40;2.20;;;;;;;;;;10320749;28;20087;-62
2021/08/17 12:52:16;;;;;;;5.00;2.60;;;;;;;;;;10320242;28;20086;-61
2021/08/17 12:57:17;;;;;;;2.00;1.77;;;;;;;;;;10320923;28;20420;-61
2021/08/17 13:02:16;;;;;;;1.98;1.75;;;;;;;;;;10320807;28;20072;-61
2021/08/17 13:07:14;;;;;;;3.67;2.20;;;;;;;;;;10320472;28;20072;-61
2021/08/17 13:12:13;;;;;;;3.78;1.83;;;;;;;;;;10320635;28;20059;-61
2021/08/17 13:17:13;;;;;;;2.85;2.20;;;;;;;;;;10320027;28;20044;-62
2021/08/17 13:22:11;;;;;;;4.28;2.20;;;;;;;;;;10319976;28;20048;-61
2021/08/17 13:27:09;;;;;;;6.95;2.53;;;;;;;;;;10319473;28;20083;-60
2021/08/17 13:32:08;;;;;;;1.73;1.60;;;;;;;;;;10319665;28;20075;-60
2021/08/17 13:37:08;;;;;;;1.70;1.60;;;;;;;;;;10319754;28;20048;-61
2021/08/17 13:42:08;;;;;;;5.33;1.83;;;;;;;;;;10319051;28;20051;-61
2021/08/17 13:47:06;;;;;;;2.88;2.58;;;;;;;;;;10318233;28;20091;-61
2021/08/17 13:52:05;;;;;;;1.88;1.67;;;;;;;;;;10318775;28;20052;-62
2021/08/17 13:57:05;;;;;;;3.10;1.98;;;;;;;;;;10318591;28;20421;-61
2021/08/17 14:02:05;;;;;;;3.38;2.00;;;;;;;;;;10318593;28;20044;-61
2021/08/17 14:07:03;;;;;;;2.03;1.83;;;;;;;;;;10317002;28;20534;-61
2021/08/17 14:12:02;;;;;;;2.25;1.80;;;;;;;;;;10317753;28;20075;-61
2021/08/17 14:17:01;;;;;;;7.05;6.45;;;;;;;;;;10317422;28;20037;-61
2021/08/17 14:22:00;;;;;;;3.05;2.65;;;;;;;;;;10317465;28;20075;-61
2021/08/17 14:26:58;;;;;;;6.55;2.47;;;;;;;;;;10317192;28;20083;-61
2021/08/17 14:31:56;;;;;;;4.53;4.13;;;;;;;;;;10317512;28;20174;-61
2021/08/17 14:36:56;;;;;;;4.43;4.03;;;;;;;;;;10317147;28;20041;-60
2021/08/17 14:41:54;;;;;;;3.40;3.10;;;;;;;;;;10316738;28;20415;-61
2021/08/17 14:46:53;;;;;;;4.32;3.92;;;;;;;;;;10315079;28;20083;-61
2021/08/17 14:51:51;;;;;;;5.55;4.28;;;;;;;;;;10316642;28;20052;-59
2021/08/17 14:56:51;;;;;;;11.25;4.63;;;;;;;;;;10316859;28;20103;-60
2021/08/17 15:01:49;;;;;;;5.35;4.85;;;;;;;;;;10316324;28;20051;-60
2021/08/17 15:06:48;;;;;;;5.18;4.78;;;;;;;;;;10316363;28;20264;-60
2021/08/17 15:11:46;;;;;;;6.53;5.25;;;;;;;;;;10316358;28;20076;-60
2021/08/17 15:16:46;;;;;;;15.98;5.53;;;;;;;;;;10319270;28;20040;-60
2021/08/17 15:21:44;;;;;;;3.72;2.60;;;;;;;;;;10324580;28;20382;-61
2021/08/17 15:26:43;;;;;;;2.95;2.17;;;;;;;;;;10324279;28;20080;-62
2021/08/17 15:31:41;;;;;;;3.53;3.22;;;;;;;;;;10324432;28;20517;-60
2021/08/17 15:36:41;;;;;;;5.35;4.68;;;;;;;;;;10324018;28;20044;-60
2021/08/17 15:41:42;;;;;;;3.65;3.33;;;;;;;;;;10323678;28;20044;-60
2021/08/17 15:46:42;;;;;;;5.55;2.70;;;;;;;;;;10322800;28;20486;-60
2021/08/17 15:51:41;;;;;;;21.42;4.47;;;;;;;;;;10323376;28;20047;-60
2021/08/17 15:56:40;;;;;;;5.05;3.60;;;;;;;;;;10323044;28;20048;-60
2021/08/17 16:01:38;;;;;;;3.20;2.75;;;;;;;;;;10322984;28;20045;-60
2021/08/17 16:06:36;;;;;;;7.03;3.33;;;;;;;;;;10322716;28;20185;-62
2021/08/17 16:11:36;;;;;;;11.90;3.25;;;;;;;;;;10321166;28;20044;-62
2021/08/17 16:16:34;;;;;;;14.60;3.33;;;;;;;;;;10321647;28;20055;-61
2021/08/17 16:21:33;;;;;;;6.13;3.10;;;;;;;;;;10322512;28;20059;-61
2021/08/17 16:26:32;;;;;;;9.65;4.10;;;;;;;;;;10321895;28;20040;-60
2021/08/17 16:31:31;;;;;;;6.40;4.30;;;;;;;;;;10320791;28;20055;-61
2021/08/17 16:36:30;;;;;;;7.43;3.65;;;;;;;;;;10321593;28;20478;-61
2021/08/17 16:41:28;;;;;;;8.52;2.90;;;;;;;;;;10321782;28;20076;-59
2021/08/17 16:46:26;;;;;;;3.78;2.38;;;;;;;;;;10320710;28;20084;-60
2021/08/17 16:51:26;;;;;;;3.15;2.40;;;;;;;;;;10321125;28;20068;-60
2021/08/17 16:56:25;;;;;;;6.57;3.30;;;;;;;;;;10320768;28;20493;-60
2021/08/17 17:01:23;;;;;;;9.32;3.50;;;;;;;;;;10320818;28;20379;-60
2021/08/17 17:06:22;;;;;;;11.63;3.35;;;;;;;;;;10320572;28;20083;-59
2021/08/17 17:11:22;;;;;;;2.38;2.10;;;;;;;;;;10319988;28;20090;-60
2021/08/17 17:16:20;;;;;;;5.88;3.00;;;;;;;;;;10319950;28;20079;-60
2021/08/17 17:21:18;;;;;;;9.25;3.90;;;;;;;;;;10319614;28;20045;-60
2021/08/17 17:26:17;;;;;;;3.20;2.78;;;;;;;;;;10319760;28;20087;-61
2021/08/17 17:31:16;;;;;;;5.95;4.43;;;;;;;;;;10319430;28;20045;-60
2021/08/17 17:36:15;;;;;;;4.13;3.58;;;;;;;;;;10319572;28;20052;-60
2021/08/17 17:41:13;;;;;;;13.95;4.30;;;;;;;;;;10318628;28;20504;-59
2021/08/17 17:46:11;;;;;;;4.75;3.28;;;;;;;;;;10318346;28;20087;-59
2021/08/17 17:51:11;;;;;;;4.60;3.17;;;;;;;;;;10318417;28;20064;-60
2021/08/17 17:56:09;;;;;;;4.65;3.05;;;;;;;;;;10318601;28;20388;-60
2021/08/17 18:01:08;;;;;;;4.47;3.10;;;;;;;;;;10318358;28;20040;-60
2021/08/17 18:06:06;;;;;;;5.25;3.42;;;;;;;;;;10317853;28;20048;-60
2021/08/17 18:11:06;;;;;;;5.00;3.33;;;;;;;;;;10317590;28;20040;-59
2021/08/17 18:16:05;;;;;;;4.63;4.05;;;;;;;;;;10317724;28;20041;-60
2021/08/17 18:21:03;;;;;;;5.30;3.60;;;;;;;;;;10317291;28;20055;-59
2021/08/17 18:26:02;;;;;;;5.30;3.65;;;;;;;;;;10317010;28;20047;-59
2021/08/17 18:31:01;;;;;;;8.70;3.35;;;;;;;;;;10317575;28;20474;-59
2021/08/17 18:36:00;;;;;;;17.00;3.83;;;;;;;;;;10316750;28;20068;-59
2021/08/17 18:41:00;;;;;;;4.35;3.33;;;;;;;;;;10316866;28;20047;-60
2021/08/17 18:46:00;;;;;;;3.78;3.42;;;;;;;;;;10316550;28;20051;-60
2021/08/17 18:51:00;;;;;;;4.32;3.22;;;;;;;;;;10315847;28;20512;-59
2021/08/17 18:55:58;;;;;;;6.70;3.45;;;;;;;;;;10315827;28;20040;-60
2021/08/17 19:00:56;;;;;;;5.80;3.97;;;;;;;;;;10315770;28;20076;-60
2021/08/17 19:06:00;;;;;;;7.20;4.13;;;;;;;;;;10316364;28;20041;-60
2021/08/17 19:10:59;;;;;;;6.68;3.70;;;;;;;;;;10316060;28;20078;-60
2021/08/17 19:15:57;;;;;;;6.22;3.80;;;;;;;;;;10315793;28;20076;-61
2021/08/17 19:20:56;;;;;;;6.03;3.58;;;;;;;;;;10315837;28;20067;-60
2021/08/17 19:25:55;;;;;;;7.05;3.60;;;;;;;;;;10316189;28;20053;-59
2021/08/17 19:30:54;;;;;;;8.65;3.95;;;;;;;;;;10316018;28;20425;-59
2021/08/17 19:35:52;;;;;;;5.25;3.22;;;;;;;;;;10315426;28;20048;-60
2021/08/17 19:40:51;;;;;;;6.15;3.85;;;;;;;;;;10316289;28;20055;-60
2021/08/17 19:45:50;;;;;;;6.15;3.17;;;;;;;;;;10315138;28;20091;-59
2021/08/17 19:50:49;;;;;;;9.02;3.50;;;;;;;;;;10315221;28;20083;-60
2021/08/17 19:55:47;;;;;;;3.83;3.47;;;;;;;;;;10315087;28;20421;-60
2021/08/17 20:00:46;;;;;;;5.65;3.72;;;;;;;;;;10315588;28;20469;-59
2021/08/17 20:05:45;;;;;;;5.30;3.53;;;;;;;;;;10322195;28;20036;-60
2021/08/17 20:10:44;;;;;;;5.70;3.38;;;;;;;;;;10321496;28;20056;-60
2021/08/17 20:15:42;;;;;;;5.70;3.67;;;;;;;;;;10322239;28;20048;-59
2021/08/17 20:20:40;;;;;;;7.68;4.00;;;;;;;;;;10322418;28;20051;-59
2021/08/17 20:25:40;;;;;;;3.35;2.97;;;;;;;;;;10321750;28;20041;-60
2021/08/17 20:30:39;;;;;;;5.70;3.42;;;;;;;;;;10322110;28;20044;-60
2021/08/17 20:35:38;;;;;;;4.47;3.50;;;;;;;;;;10321882;28;20507;-61
2021/08/17 20:40:40;;;;;;;4.65;3.20;;;;;;;;;;10321389;28;20135;-60
2021/08/17 20:45:38;;;;;;;5.38;3.60;;;;;;;;;;10320953;28;20076;-59
2021/08/17 20:50:37;;;;;;;5.78;3.80;;;;;;;;;;10320975;28;20699;-59
2021/08/17 20:55:35;;;;;;;5.63;2.95;;;;;;;;;;10321133;28;20045;-59
2021/08/17 21:00:36;;;;;;;5.93;3.58;;;;;;;;;;10320637;28;20043;-60
2021/08/17 21:05:34;;;;;;;4.18;2.83;;;;;;;;;;10320433;28;20055;-60
2021/08/17 21:10:33;;;;;;;7.15;3.80;;;;;;;;;;10319969;28;20106;-59
2021/08/17 21:15:32;;;;;;;5.00;4.10;;;;;;;;;;10319166;28;20407;-60
2021/08/17 21:20:31;;;;;;;6.13;4.20;;;;;;;;;;10319695;28;20080;-59
2021/08/17 21:25:30;;;;;;;5.53;3.38;;;;;;;;;;10319480;28;20049;-58
2021/08/17 21:30:31;;;;;;;4.88;3.33;;;;;;;;;;10319306;28;20079;-59
2021/08/17 21:35:30;;;;;;;4.80;3.70;;;;;;;;;;10319825;28;20060;-60
2021/08/17 21:40:29;;;;;;;4.18;3.42;;;;;;;;;;10318830;28;20407;-60
2021/08/17 21:45:28;;;;;;;5.13;3.47;;;;;;;;;;10318930;28;20055;-60
2021/08/17 21:50:26;;;;;;;4.63;3.45;;;;;;;;;;10318631;28;20053;-60
2021/08/17 21:55:25;;;;;;;6.72;3.80;;;;;;;;;;10318200;28;20472;-60
2021/08/17 22:00:26;;;;;;;4.93;4.15;;;;;;;;;;10318055;28;20052;-60
2021/08/17 22:05:25;;;;;;;4.65;4.07;;;;;;;;;;10318527;28;20055;-60
2021/08/17 22:10:23;;;;;;;5.93;3.50;;;;;;;;;;10318161;28;20083;-60
2021/08/17 22:15:22;;;;;;;4.50;3.92;;;;;;;;;;10317620;28;20060;-60
2021/08/17 22:20:22;;;;;;;4.07;3.65;;;;;;;;;;10317213;28;20052;-60
2021/08/17 22:25:20;;;;;;;5.40;3.80;;;;;;;;;;10316213;28;20509;-60
2021/08/17 22:30:21;;;;;;;5.07;3.88;;;;;;;;;;10317020;28;20071;-60
2021/08/17 22:35:19;;;;;;;6.68;3.92;;;;;;;;;;10317020;28;20044;-59
2021/08/17 22:40:19;;;;;;;5.13;4.63;;;;;;;;;;10316706;28;20485;-59
2021/08/17 22:45:17;;;;;;;4.85;4.28;;;;;;;;;;10316877;28;20055;-59
2021/08/17 22:50:16;;;;;;;5.88;4.03;;;;;;;;;;10316264;28;20448;-60
2021/08/17 22:55:14;;;;;;;7.75;4.47;;;;;;;;;;10317116;28;20493;-60
2021/08/17 23:00:14;;;;;;;6.65;3.72;;;;;;;;;;10316817;28;20072;-59
2021/08/17 23:05:11;;;;;;;6.07;4.07;;;;;;;;;;10316149;28;20040;-59
2021/08/17 23:10:11;;;;;;;9.65;4.10;;;;;;;;;;10316237;28;20083;-60
2021/08/17 23:15:12;;;;;;;6.50;3.90;;;;;;;;;;10316213;28;20437;-59
2021/08/17 23:20:12;;;;;;;5.60;4.07;;;;;;;;;;10314434;28;20051;-60
2021/08/17 23:25:11;;;;;;;5.05;4.00;;;;;;;;;;10316014;28;20104;-60
2021/08/17 23:30:10;;;;;;;5.20;3.88;;;;;;;;;;10316339;28;20474;-60
2021/08/17 23:35:09;;;;;;;4.05;3.65;;;;;;;;;;10316362;28;20410;-59
2021/08/17 23:40:10;;;;;;;4.28;3.88;;;;;;;;;;10321919;28;20049;-60
2021/08/17 23:45:09;;;;;;;5.47;3.80;;;;;;;;;;10323342;28;20098;-59
2021/08/17 23:50:08;;;;;;;4.20;3.35;;;;;;;;;;10323406;28;20094;-60
2021/08/17 23:55:07;;;;;;;5.47;3.97;;;;;;;;;;10322916;28;20088;-60
